Time;durP1;ratioP1;P1;durP2;ratioP2;P2;SDS_P1;SDS_P2;PMS_P1;PMS_P2;Temp;Humidity;BMP_temperature;BMP_pressure;BME280_temperature;BME280_humidity;BME280_pressure;Samples;Min_cycle;Max_cycle;Signal;HPM_P1;HPM_P2
2022/03/02 00:02:20;;;;;;;11.65;9.02;;;-1.70;93.10;;;;;;5108127;28;20259;-76
2022/03/02 00:04:47;;;;;;;12.25;8.55;;;-1.80;93.10;;;;;;5107979;28;20223;-75
2022/03/02 00:07:14;;;;;;;12.63;9.55;;;-1.80;92.90;;;;;;5108147;28;20225;-76
2022/03/02 00:09:41;;;;;;;15.05;10.23;;;-1.70;93.10;;;;;;5109438;28;20580;-75
2022/03/02 00:12:09;;;;;;;14.77;10.70;;;-1.70;93.20;;;;;;5108589;28;20214;-77
2022/03/02 00:14:36;;;;;;;12.63;9.80;;;-1.80;93.40;;;;;;5107870;28;20227;-77
2022/03/02 00:17:03;;;;;;;13.40;9.88;;;-1.80;93.90;;;;;;5108303;28;20219;-77
2022/03/02 00:19:29;;;;;;;17.92;9.80;;;-1.70;93.60;;;;;;5108608;28;20316;-78
2022/03/02 00:21:56;;;;;;;13.35;8.68;;;-1.70;93.60;;;;;;5109012;28;20237;-78
2022/03/02 00:24:23;;;;;;;15.93;10.30;;;-1.60;93.60;;;;;;5108612;28;20231;-77
2022/03/02 00:26:49;;;;;;;15.98;10.63;;;-1.70;93.60;;;;;;5108290;28;20574;-77
2022/03/02 00:29:18;;;;;;;11.90;9.07;;;-1.70;93.50;;;;;;5110364;28;20916;-77
2022/03/02 00:31:45;;;;;;;12.07;9.55;;;-1.70;93.80;;;;;;5118584;28;20199;-77
2022/03/02 00:34:12;;;;;;;15.68;9.90;;;-1.70;94.30;;;;;;5111803;28;20733;-75
2022/03/02 00:36:41;;;;;;;12.95;9.50;;;-1.70;94.10;;;;;;5107266;28;20206;-76
2022/03/02 00:39:08;;;;;;;12.13;10.40;;;-1.60;94.10;;;;;;5106800;28;20199;-76
2022/03/02 00:41:35;;;;;;;16.23;9.88;;;-1.70;94.10;;;;;;5107195;28;20295;-75
2022/03/02 00:44:02;;;;;;;11.70;9.02;;;-1.60;94.10;;;;;;5106953;28;20259;-76
2022/03/02 00:46:31;;;;;;;13.95;9.15;;;-1.60;94.30;;;;;;5107188;28;20234;-76
2022/03/02 00:48:59;;;;;;;16.85;10.23;;;-1.50;94.40;;;;;;5107276;28;20199;-76
2022/03/02 00:51:27;;;;;;;14.30;9.23;;;-1.50;94.40;;;;;;5106772;28;20245;-76
2022/03/02 00:53:54;;;;;;;11.38;9.23;;;-1.40;94.40;;;;;;5105956;28;20300;-76
2022/03/02 00:56:21;;;;;;;13.77;9.88;;;-1.40;94.30;;;;;;5105985;28;20203;-76
2022/03/02 00:58:48;;;;;;;15.30;9.80;;;-1.40;94.60;;;;;;5107005;28;20210;-77
2022/03/02 01:01:16;;;;;;;13.10;9.93;;;-1.30;94.50;;;;;;5107965;28;20975;-77
2022/03/02 01:03:44;;;;;;;13.68;9.63;;;-1.30;95.00;;;;;;5107848;28;20712;-76
2022/03/02 01:06:10;;;;;;;11.43;9.13;;;-1.30;94.70;;;;;;5108087;28;20199;-77
2022/03/02 01:08:37;;;;;;;12.60;8.52;;;-1.30;94.50;;;;;;5107292;28;20203;-76
2022/03/02 01:11:04;;;;;;;12.50;8.85;;;-1.20;94.50;;;;;;5107573;28;20199;-77
2022/03/02 01:13:31;;;;;;;11.57;9.05;;;-1.30;94.40;;;;;;5108401;28;20681;-76
2022/03/02 01:15:58;;;;;;;12.13;8.57;;;-1.30;94.30;;;;;;5107196;28;20211;-76
2022/03/02 01:18:24;;;;;;;13.35;8.63;;;-1.30;94.20;;;;;;5106845;28;20202;-76
2022/03/02 01:20:52;;;;;;;13.35;8.95;;;-1.30;94.10;;;;;;5107446;28;20581;-76
2022/03/02 01:23:19;;;;;;;13.02;8.45;;;-1.30;94.10;;;;;;5107210;28;20230;-76
2022/03/02 01:25:46;;;;;;;11.45;8.07;;;-1.40;94.20;;;;;;5116272;28;20931;-76
2022/03/02 01:28:13;;;;;;;10.40;8.93;;;-1.40;94.00;;;;;;5111099;27;20210;-75
2022/03/02 01:30:40;;;;;;;12.30;8.75;;;-1.40;94.10;;;;;;5111956;28;20210;-76
2022/03/02 01:33:06;;;;;;;14.40;9.77;;;-1.40;94.20;;;;;;5110532;28;20210;-76
2022/03/02 01:35:33;;;;;;;14.10;9.45;;;-1.50;94.10;;;;;;5111164;28;20199;-77
2022/03/02 01:38:01;;;;;;;9.75;7.93;;;-1.50;94.00;;;;;;5110056;28;20199;-76
2022/03/02 01:40:28;;;;;;;11.90;8.13;;;-1.40;94.00;;;;;;5110914;28;20230;-76
2022/03/02 01:42:55;;;;;;;12.60;9.20;;;-1.40;93.90;;;;;;5110777;28;20199;-76
2022/03/02 01:45:22;;;;;;;10.80;8.32;;;-1.30;93.90;;;;;;5110542;28;20322;-76
2022/03/02 01:47:49;;;;;;;11.80;8.70;;;-1.30;94.00;;;;;;5109897;28;20235;-76
2022/03/02 01:50:17;;;;;;;12.35;9.40;;;-1.30;94.00;;;;;;5110385;28;20889;-77
2022/03/02 01:52:44;;;;;;;11.10;8.98;;;-1.40;94.10;;;;;;5110797;28;20210;-76
2022/03/02 01:55:13;;;;;;;16.23;8.63;;;-1.50;94.00;;;;;;5110122;28;20226;-76
2022/03/02 01:57:41;;;;;;;12.50;7.72;;;-1.50;94.20;;;;;;5109965;28;20213;-76
2022/03/02 02:00:10;;;;;;;10.75;8.35;;;-1.60;94.20;;;;;;5110299;28;20897;-76
2022/03/02 02:02:36;;;;;;;11.70;9.05;;;-1.60;94.40;;;;;;5110034;27;20210;-75
2022/03/02 02:05:03;;;;;;;10.63;8.05;;;-1.70;94.50;;;;;;5110008;28;20230;-76
2022/03/02 02:07:30;;;;;;;12.57;8.85;;;-1.70;94.50;;;;;;5110618;28;20541;-76
2022/03/02 02:09:58;;;;;;;10.60;7.82;;;-1.70;94.80;;;;;;5110337;28;20207;-76
2022/03/02 02:12:26;;;;;;;12.55;8.95;;;-1.70;94.80;;;;;;5111253;28;20336;-77
2022/03/02 02:14:53;;;;;;;13.95;9.75;;;-1.70;94.80;;;;;;5109873;28;20697;-76
2022/03/02 02:17:20;;;;;;;12.20;9.45;;;-1.70;94.90;;;;;;5109677;27;20210;-76
2022/03/02 02:19:46;;;;;;;12.85;8.40;;;-1.80;95.00;;;;;;5110561;28;20207;-76
2022/03/02 02:22:14;;;;;;;13.65;9.60;;;-1.90;95.10;;;;;;5110425;28;20203;-76
2022/03/02 02:24:45;;;;;;;12.40;8.25;;;-1.90;95.30;;;;;;5075237;22;20233;-92
2022/03/02 02:27:12;;;;;;;9.27;6.82;;;-1.90;95.50;;;;;;5019911;22;20235;-75
2022/03/02 02:29:40;;;;;;;12.57;8.60;;;-1.90;95.30;;;;;;4989342;28;20203;-75
2022/03/02 02:32:07;;;;;;;13.68;8.63;;;-2.00;95.40;;;;;;4990075;28;20203;-75
2022/03/02 02:34:33;;;;;;;10.90;7.93;;;-2.00;95.60;;;;;;4990280;28;20219;-75
2022/03/02 02:37:00;;;;;;;10.48;8.50;;;-2.10;95.80;;;;;;4989626;28;20215;-75
2022/03/02 02:39:29;;;;;;;11.73;7.95;;;-2.10;95.90;;;;;;4989600;28;20207;-75
2022/03/02 02:42:03;;;;;;;11.40;8.60;;;-2.20;96.20;;;;;;4990494;28;20199;-75
2022/03/02 02:44:30;;;;;;;12.00;9.02;;;-2.30;96.10;;;;;;4989931;28;20243;-75
2022/03/02 02:46:57;;;;;;;9.52;7.97;;;-2.30;96.00;;;;;;4989992;28;20211;-75
2022/03/02 02:49:24;;;;;;;10.68;8.93;;;-2.20;96.10;;;;;;4990287;28;20585;-75
2022/03/02 02:51:53;;;;;;;14.10;8.43;;;-2.20;96.10;;;;;;4990571;28;20203;-75
2022/03/02 02:54:20;;;;;;;15.15;8.20;;;-2.20;96.10;;;;;;4990126;28;20219;-75
2022/03/02 02:56:48;;;;;;;10.20;8.48;;;-2.30;96.10;;;;;;4989984;28;20214;-75
2022/03/02 02:59:15;;;;;;;10.18;7.95;;;-2.30;96.20;;;;;;4990472;28;20207;-75
2022/03/02 03:01:41;;;;;;;12.55;7.88;;;-2.40;96.20;;;;;;4989932;28;20222;-75
2022/03/02 03:04:09;;;;;;;13.93;8.43;;;-2.40;96.20;;;;;;4990430;28;20227;-75
2022/03/02 03:06:36;;;;;;;12.10;8.50;;;-2.40;96.30;;;;;;4989675;28;20203;-75
2022/03/02 03:09:03;;;;;;;14.02;8.63;;;-2.50;96.30;;;;;;4990595;28;20586;-75
2022/03/02 03:11:30;;;;;;;11.95;8.57;;;-2.50;96.30;;;;;;4993462;28;20207;-75
2022/03/02 03:13:59;;;;;;;15.57;9.27;;;-2.50;96.30;;;;;;4996163;28;20231;-74
2022/03/02 03:16:26;;;;;;;13.32;8.80;;;-2.50;96.40;;;;;;4992741;28;20207;-75
2022/03/02 03:18:52;;;;;;;16.67;8.77;;;-2.50;96.40;;;;;;4994904;28;20227;-75
2022/03/02 03:21:19;;;;;;;11.65;7.97;;;-2.50;96.40;;;;;;5000650;28;20203;-75
2022/03/02 03:23:46;;;;;;;12.25;8.15;;;-2.50;96.30;;;;;;4999644;28;20610;-74
2022/03/02 03:26:12;;;;;;;12.00;8.50;;;-2.60;96.40;;;;;;4994762;28;20213;-75
2022/03/02 03:28:39;;;;;;;12.80;8.32;;;-2.60;96.70;;;;;;4989903;28;20214;-75
2022/03/02 03:31:07;;;;;;;11.68;7.63;;;-2.70;96.60;;;;;;4990307;28;20203;-75
2022/03/02 03:33:34;;;;;;;13.73;8.40;;;-2.70;96.70;;;;;;4989600;28;20223;-75
2022/03/02 03:36:02;;;;;;;12.13;8.25;;;-2.70;96.60;;;;;;4989848;28;20206;-75
2022/03/02 03:38:29;;;;;;;11.95;8.23;;;-2.60;96.60;;;;;;4989119;28;20203;-75
2022/03/02 03:40:56;;;;;;;12.35;8.88;;;-2.70;96.50;;;;;;4989315;28;20273;-75
2022/03/02 03:43:22;;;;;;;10.50;7.70;;;-2.70;96.40;;;;;;4989847;28;20254;-75
2022/03/02 03:45:50;;;;;;;13.23;8.65;;;-2.70;96.50;;;;;;4988992;28;20223;-75
2022/03/02 03:48:19;;;;;;;12.15;9.18;;;-2.80;96.50;;;;;;4989331;28;20233;-75
2022/03/02 03:50:46;;;;;;;10.07;8.63;;;-2.80;96.60;;;;;;4989483;28;20203;-75
2022/03/02 03:53:13;;;;;;;10.23;7.70;;;-2.80;96.50;;;;;;4989442;28;20199;-75
2022/03/02 03:55:40;;;;;;;11.73;8.20;;;-2.80;96.40;;;;;;4989116;28;20206;-75
2022/03/02 03:58:08;;;;;;;13.13;8.02;;;-2.80;96.50;;;;;;4988448;28;20199;-75
2022/03/02 04:00:35;;;;;;;19.08;7.88;;;-2.80;96.50;;;;;;4989316;28;20218;-75
2022/03/02 04:03:01;;;;;;;11.85;8.10;;;-2.90;96.50;;;;;;4989019;28;20255;-75
2022/03/02 04:05:30;;;;;;;12.00;8.57;;;-2.90;96.60;;;;;;4989150;28;20227;-75
2022/03/02 04:07:56;;;;;;;14.40;8.38;;;-2.80;96.50;;;;;;4988496;28;20298;-75
2022/03/02 04:10:23;;;;;;;15.75;8.93;;;-2.90;96.70;;;;;;4989039;28;20214;-76
2022/03/02 04:12:50;;;;;;;12.30;9.13;;;-2.90;96.70;;;;;;4989087;28;20214;-75
2022/03/02 04:15:18;;;;;;;12.90;8.95;;;-2.90;96.70;;;;;;4989183;28;20231;-75
2022/03/02 04:17:46;;;;;;;11.05;7.55;;;-2.90;96.70;;;;;;4988434;28;20412;-75
2022/03/02 04:20:13;;;;;;;12.18;8.32;;;-2.90;96.60;;;;;;4988883;28;20231;-75
2022/03/02 04:22:41;;;;;;;13.07;9.05;;;-2.90;96.60;;;;;;4988906;28;20209;-75
2022/03/02 04:25:10;;;;;;;16.75;9.68;;;-2.90;96.50;;;;;;4988678;28;20235;-75
2022/03/02 04:27:36;;;;;;;13.50;7.47;;;-3.00;96.70;;;;;;4988189;28;20215;-75
2022/03/02 04:30:04;;;;;;;12.70;7.60;;;-3.00;96.80;;;;;;4989234;28;20203;-75
2022/03/02 04:32:31;;;;;;;12.70;7.95;;;-3.00;96.90;;;;;;5002662;28;20593;-75
2022/03/02 04:34:58;;;;;;;13.57;8.88;;;-3.00;97.00;;;;;;5006912;28;20218;-76
2022/03/02 04:37:25;;;;;;;13.55;8.40;;;-3.10;97.00;;;;;;5005535;28;20202;-76
2022/03/02 04:39:53;;;;;;;10.57;7.70;;;-3.10;97.20;;;;;;5007081;28;20207;-74
2022/03/02 04:42:20;;;;;;;12.77;8.20;;;-3.10;97.20;;;;;;5007684;28;20203;-74
2022/03/02 04:44:46;;;;;;;14.13;8.77;;;-3.10;97.10;;;;;;5006493;28;20225;-74
2022/03/02 04:47:13;;;;;;;11.63;8.68;;;-3.10;97.20;;;;;;5006846;28;20296;-75
2022/03/02 04:49:40;;;;;;;12.00;7.68;;;-3.20;97.20;;;;;;5007702;28;20198;-75
2022/03/02 04:52:08;;;;;;;12.93;9.13;;;-3.10;97.10;;;;;;5008266;28;20198;-75
2022/03/02 04:57:20;;;;;;;12.95;8.48;;;-3.10;97.10;;;;;;5008011;28;20198;-75
2022/03/02 04:59:46;;;;;;;10.48;8.05;;;-3.10;97.10;;;;;;5007604;28;20202;-75
2022/03/02 05:02:13;;;;;;;14.45;8.88;;;-3.20;97.20;;;;;;5010478;28;20210;-75
2022/03/02 05:04:40;;;;;;;10.82;8.75;;;-3.30;97.30;;;;;;5011362;28;20263;-75
2022/03/02 05:07:07;;;;;;;13.55;8.55;;;-3.20;97.30;;;;;;5011363;28;20205;-75
2022/03/02 05:09:34;;;;;;;10.48;7.88;;;-3.30;97.20;;;;;;5012060;28;20214;-75
2022/03/02 05:12:02;;;;;;;12.20;8.07;;;-3.40;97.30;;;;;;5011921;28;20207;-76
2022/03/02 05:14:31;;;;;;;10.40;8.20;;;-3.40;97.40;;;;;;5012179;28;20219;-76
2022/03/02 05:16:57;;;;;;;13.52;8.88;;;-3.40;97.40;;;;;;5010880;28;20210;-75
2022/03/02 05:19:24;;;;;;;13.75;7.82;;;-3.30;97.80;;;;;;5012469;28;20206;-75
2022/03/02 05:21:51;;;;;;;14.45;8.32;;;-3.40;97.50;;;;;;5012304;28;20206;-75
2022/03/02 05:24:18;;;;;;;13.32;8.80;;;-3.30;97.60;;;;;;5014831;28;20465;-78
2022/03/02 05:26:45;;;;;;;14.88;9.82;;;-3.40;97.70;;;;;;5014142;28;20277;-79
2022/03/02 05:29:12;;;;;;;12.27;9.00;;;-3.30;97.70;;;;;;5018949;28;20229;-79
2022/03/02 05:31:40;;;;;;;14.48;9.00;;;-3.30;97.80;;;;;;5019062;28;20203;-79
2022/03/02 05:34:07;;;;;;;12.80;8.65;;;-3.30;97.80;;;;;;5016995;28;20229;-78
2022/03/02 05:36:34;;;;;;;12.35;7.85;;;-3.30;97.90;;;;;;5017723;28;20209;-79
2022/03/02 05:39:01;;;;;;;12.07;8.32;;;-3.30;99.10;;;;;;5015755;28;20213;-79
2022/03/02 05:41:27;;;;;;;11.65;8.27;;;-3.30;98.90;;;;;;5015664;28;20213;-79
2022/03/02 05:43:54;;;;;;;13.55;8.45;;;-3.20;98.60;;;;;;5015072;28;20607;-79
2022/03/02 05:46:21;;;;;;;12.48;8.85;;;-3.20;98.40;;;;;;5015726;28;20603;-80
2022/03/02 05:48:52;;;;;;;15.40;8.80;;;-3.10;98.50;;;;;;5013605;28;20206;-80
2022/03/02 05:51:19;;;;;;;12.27;8.82;;;-3.10;98.50;;;;;;5015276;28;20245;-80
2022/03/02 05:53:46;;;;;;;10.10;8.60;;;-3.20;98.60;;;;;;5016235;28;20225;-80
2022/03/02 05:56:16;;;;;;;11.80;8.35;;;-3.10;98.60;;;;;;5017020;28;20565;-79
2022/03/02 05:58:42;;;;;;;11.48;8.15;;;-3.00;98.60;;;;;;5017014;28;20217;-80
2022/03/02 06:01:09;;;;;;;12.98;9.43;;;-3.00;98.60;;;;;;5017016;28;20669;-80
2022/03/02 06:03:36;;;;;;;12.43;9.10;;;-3.00;98.60;;;;;;5016318;28;20234;-80
2022/03/02 06:06:05;;;;;;;12.85;8.77;;;-2.90;98.80;;;;;;5016328;28;20226;-80
2022/03/02 06:08:31;;;;;;;12.18;9.05;;;-2.80;98.90;;;;;;5014945;28;20213;-79
2022/03/02 06:10:59;;;;;;;17.10;9.95;;;-2.80;98.80;;;;;;5016362;28;20214;-80
2022/03/02 06:13:26;;;;;;;11.32;7.93;;;-2.70;98.80;;;;;;5015036;28;20219;-80
2022/03/02 06:15:53;;;;;;;12.95;8.80;;;-2.80;98.90;;;;;;5015044;28;20199;-79
2022/03/02 06:18:20;;;;;;;12.07;8.30;;;-2.70;98.90;;;;;;5013785;28;20267;-80
2022/03/02 06:20:50;;;;;;;12.80;8.88;;;-2.60;98.90;;;;;;5014528;28;20217;-79
2022/03/02 06:23:19;;;;;;;13.38;9.25;;;-2.60;98.90;;;;;;5014249;28;20255;-80
2022/03/02 06:25:47;;;;;;;14.57;10.23;;;-2.50;98.90;;;;;;5013375;28;20214;-80
2022/03/02 06:28:14;;;;;;;11.35;8.23;;;-2.40;98.90;;;;;;5013846;28;20217;-80
2022/03/02 06:30:41;;;;;;;19.05;9.95;;;-2.30;98.90;;;;;;5013664;28;20740;-80
2022/03/02 06:33:09;;;;;;;16.65;9.30;;;-2.20;99.00;;;;;;5014102;28;20208;-80
2022/03/02 06:35:36;;;;;;;13.20;9.45;;;-2.20;98.60;;;;;;5013725;28;20671;-80
2022/03/02 06:38:02;;;;;;;13.30;9.38;;;-2.10;98.60;;;;;;5013798;28;20222;-81
2022/03/02 06:40:31;;;;;;;13.80;8.52;;;-2.10;98.50;;;;;;5014639;28;20206;-80
2022/03/02 06:43:03;;;;;;;13.43;8.60;;;-2.10;98.50;;;;;;5015246;28;20210;-80
2022/03/02 06:45:50;;;;;;;14.52;9.93;;;-1.90;98.50;;;;;;5025270;28;20222;-79
2022/03/02 06:48:20;;;;;;;13.77;9.25;;;-1.80;98.60;;;;;;5022907;28;20262;-79
2022/03/02 06:50:52;;;;;;;15.32;8.75;;;-1.70;98.80;;;;;;5025020;28;20195;-79
2022/03/02 06:53:30;;;;;;;12.95;9.10;;;-1.60;98.80;;;;;;5014455;28;20198;-79
2022/03/02 06:56:00;;;;;;;16.45;9.80;;;-1.50;98.90;;;;;;5013856;28;20237;-79
2022/03/02 06:58:29;;;;;;;13.48;9.68;;;-1.40;98.80;;;;;;5005388;28;20234;-79
2022/03/02 07:00:58;;;;;;;13.15;8.82;;;-1.30;98.90;;;;;;4996528;28;20207;-79
2022/03/02 07:03:29;;;;;;;14.30;10.10;;;-1.20;98.70;;;;;;4994532;28;20237;-77
2022/03/02 07:05:56;;;;;;;16.02;9.27;;;-1.10;98.60;;;;;;4996400;28;20227;-81
2022/03/02 07:08:25;;;;;;;14.80;10.45;;;-1.00;98.80;;;;;;4996832;28;20217;-81
2022/03/02 07:10:52;;;;;;;11.85;8.90;;;-1.00;99.00;;;;;;4996873;28;20207;-79
2022/03/02 07:13:21;;;;;;;12.48;8.93;;;-0.80;99.10;;;;;;4996986;28;20214;-81
2022/03/02 07:15:50;;;;;;;14.40;10.10;;;-0.70;99.30;;;;;;4996361;28;20203;-80
2022/03/02 07:18:17;;;;;;;14.60;10.30;;;-0.60;99.20;;;;;;4996125;28;20218;-81
2022/03/02 07:20:47;;;;;;;20.00;11.15;;;-0.40;99.10;;;;;;4995507;28;20207;-81
2022/03/02 07:23:18;;;;;;;12.13;10.00;;;-0.40;98.80;;;;;;4995914;28;20207;-81
2022/03/02 07:25:46;;;;;;;15.27;10.40;;;-0.40;98.70;;;;;;4995712;28;20223;-81
2022/03/02 07:28:15;;;;;;;17.98;10.88;;;-0.30;98.70;;;;;;4995602;28;20217;-81
2022/03/02 07:30:44;;;;;;;17.25;11.15;;;-0.20;98.60;;;;;;4996203;28;20321;-80
2022/03/02 07:33:14;;;;;;;15.90;11.10;;;-0.10;99.90;;;;;;4995650;28;20268;-81
2022/03/02 07:35:42;;;;;;;24.70;10.15;;;0.00;99.50;;;;;;4995923;28;20199;-80
2022/03/02 07:38:09;;;;;;;16.80;10.32;;;0.10;99.30;;;;;;4996072;28;20210;-81
2022/03/02 07:40:36;;;;;;;14.75;10.00;;;0.10;98.80;;;;;;4996406;28;20200;-81
2022/03/02 07:43:03;;;;;;;13.45;10.90;;;0.20;98.70;;;;;;4994752;28;20210;-81
2022/03/02 07:45:30;;;;;;;15.10;11.75;;;0.20;98.60;;;;;;4990547;28;20223;-81
2022/03/02 07:47:59;;;;;;;18.73;12.30;;;0.30;98.50;;;;;;4990738;28;20211;-80
2022/03/02 07:50:26;;;;;;;14.50;10.88;;;0.30;98.60;;;;;;4990994;28;20207;-80
2022/03/02 07:52:53;;;;;;;15.50;11.35;;;0.40;98.60;;;;;;4991630;28;20207;-80
2022/03/02 07:55:21;;;;;;;17.35;11.32;;;0.50;98.40;;;;;;4991222;28;20242;-80
2022/03/02 07:57:55;;;;;;;16.23;11.50;;;0.70;98.00;;;;;;4991383;28;20203;-80
2022/03/02 08:00:22;;;;;;;15.95;11.48;;;0.80;97.80;;;;;;4992947;28;20214;-83
2022/03/02 08:02:54;;;;;;;19.90;10.57;;;1.00;97.80;;;;;;4989316;28;20218;-76
2022/03/02 08:05:23;;;;;;;24.88;11.82;;;1.10;97.70;;;;;;4989256;28;20219;-76
2022/03/02 08:07:50;;;;;;;16.58;11.75;;;1.30;97.50;;;;;;4987482;28;20195;-76
2022/03/02 08:10:18;;;;;;;15.80;11.15;;;1.50;97.10;;;;;;4989752;28;20210;-77
2022/03/02 08:12:46;;;;;;;18.48;11.93;;;1.70;96.90;;;;;;4989943;28;20281;-76
2022/03/02 08:15:14;;;;;;;21.83;12.00;;;2.00;96.50;;;;;;4989106;28;20227;-76
2022/03/02 08:17:41;;;;;;;17.90;11.50;;;2.30;96.30;;;;;;4994367;28;20678;-75
2022/03/02 08:20:09;;;;;;;16.75;11.63;;;2.50;95.90;;;;;;5006005;28;20288;-75
2022/03/02 08:22:44;;;;;;;18.98;10.68;;;2.70;95.60;;;;;;5006869;28;20218;-75
2022/03/02 08:25:12;;;;;;;17.52;11.23;;;2.90;95.70;;;;;;5006146;28;20312;-75
2022/03/02 08:27:41;;;;;;;16.73;11.35;;;3.20;95.40;;;;;;5006360;28;20214;-76
2022/03/02 08:30:10;;;;;;;17.77;11.68;;;3.50;95.00;;;;;;5006812;28;20214;-77
2022/03/02 08:32:42;;;;;;;18.80;10.48;;;3.70;94.30;;;;;;5007817;28;20575;-77
2022/03/02 08:35:10;;;;;;;16.15;11.20;;;3.90;94.10;;;;;;5007236;28;20233;-77
2022/03/02 08:37:39;;;;;;;14.77;10.18;;;3.90;93.70;;;;;;5006034;28;20287;-76
2022/03/02 08:40:08;;;;;;;16.27;12.20;;;3.90;93.40;;;;;;5008238;28;20210;-76
2022/03/02 08:42:35;;;;;;;18.63;11.63;;;3.90;93.60;;;;;;5007484;28;20742;-77
2022/03/02 08:45:04;;;;;;;19.77;11.27;;;3.90;93.90;;;;;;5008364;28;20229;-77
2022/03/02 08:47:32;;;;;;;15.85;11.23;;;4.00;93.50;;;;;;5006910;28;20222;-76
2022/03/02 08:49:59;;;;;;;20.35;12.55;;;4.00;93.60;;;;;;5007604;28;20665;-76
2022/03/02 08:52:27;;;;;;;14.50;11.90;;;4.00;93.10;;;;;;5008617;28;20207;-76
2022/03/02 08:54:56;;;;;;;19.75;11.68;;;4.30;93.30;;;;;;5007246;28;20694;-77
2022/03/02 08:57:24;;;;;;;17.48;12.05;;;4.60;93.10;;;;;;5007611;28;20206;-75
2022/03/02 08:59:53;;;;;;;18.13;12.27;;;4.80;92.80;;;;;;5005716;28;20213;-76
2022/03/02 09:02:23;;;;;;;20.63;12.38;;;5.00;92.50;;;;;;5008123;28;20564;-76
2022/03/02 09:04:51;;;;;;;19.35;13.20;;;5.10;92.40;;;;;;5007590;28;20725;-76
2022/03/02 09:07:18;;;;;;;17.50;12.18;;;5.00;92.10;;;;;;5006442;28;20222;-76
2022/03/02 09:09:45;;;;;;;27.10;12.82;;;4.80;92.20;;;;;;5006912;28;20279;-77
2022/03/02 09:12:15;;;;;;;24.92;12.82;;;4.80;92.60;;;;;;5006666;28;20692;-75
2022/03/02 09:14:42;;;;;;;26.23;12.18;;;4.70;92.40;;;;;;5006736;28;20705;-76
2022/03/02 09:17:09;;;;;;;15.60;11.77;;;4.70;92.80;;;;;;5006543;28;20199;-75
2022/03/02 09:19:36;;;;;;;18.52;12.40;;;4.80;92.80;;;;;;5006823;28;20202;-77
2022/03/02 09:22:04;;;;;;;19.90;12.93;;;5.00;92.80;;;;;;5007343;28;20232;-76
2022/03/02 09:24:32;;;;;;;31.90;13.07;;;5.30;92.80;;;;;;5006056;28;20226;-75
2022/03/02 09:26:59;;;;;;;24.90;13.40;;;5.60;92.30;;;;;;5006819;28;20234;-76
2022/03/02 09:29:30;;;;;;;16.60;12.95;;;5.90;91.90;;;;;;5006765;28;20213;-76
2022/03/02 09:31:58;;;;;;;16.10;11.27;;;6.30;91.40;;;;;;5007372;28;20264;-77
2022/03/02 09:34:27;;;;;;;17.33;12.10;;;6.50;91.30;;;;;;5007192;28;20231;-76
2022/03/02 09:36:56;;;;;;;16.27;12.32;;;6.70;91.30;;;;;;5006436;28;20207;-76
2022/03/02 09:39:23;;;;;;;21.73;12.35;;;6.90;91.00;;;;;;5007096;28;20216;-77
2022/03/02 09:41:58;;;;;;;16.83;12.45;;;7.00;90.70;;;;;;5007213;28;20211;-76
2022/03/02 09:44:35;;;;;;;20.63;14.73;;;7.00;90.50;;;;;;5007247;28;20416;-76
2022/03/02 09:47:04;;;;;;;15.95;11.60;;;7.20;90.50;;;;;;5006897;28;20631;-77
2022/03/02 09:49:34;;;;;;;15.27;11.05;;;7.20;88.50;;;;;;5010348;28;20203;-76
2022/03/02 09:52:05;;;;;;;13.40;10.95;;;7.40;87.90;;;;;;5010740;28;20243;-76
2022/03/02 09:54:36;;;;;;;17.33;11.07;;;7.60;88.20;;;;;;5009976;28;20275;-76
2022/03/02 09:57:04;;;;;;;15.75;12.18;;;7.70;87.20;;;;;;5010271;28;20561;-76
2022/03/02 09:59:36;;;;;;;15.77;10.80;;;8.20;87.40;;;;;;5010268;28;20206;-76
2022/03/02 10:02:04;;;;;;;15.48;11.20;;;9.00;84.90;;;;;;5010619;28;20207;-76
2022/03/02 10:04:35;;;;;;;17.67;12.45;;;9.60;82.80;;;;;;5010371;28;20222;-77
2022/03/02 10:10:01;;;;;;;15.55;10.48;;;9.70;79.90;;;;;;5010159;28;20267;-77
2022/03/02 10:12:31;;;;;;;16.25;11.02;;;9.60;81.20;;;;;;5010229;28;20198;-76
2022/03/02 10:15:01;;;;;;;12.43;9.85;;;9.70;81.20;;;;;;5010235;28;20234;-77
2022/03/02 10:17:33;;;;;;;15.02;9.38;;;10.40;78.10;;;;;;5010685;28;20248;-77
2022/03/02 10:20:04;;;;;;;13.05;9.95;;;11.30;78.10;;;;;;5020431;28;20203;-77
2022/03/02 10:23:05;;;;;;;14.43;10.15;;;11.80;75.00;;;;;;5020178;28;20205;-77
2022/03/02 10:25:50;;;;;;;10.35;9.30;;;12.10;71.40;;;;;;5052670;28;20213;-77
2022/03/02 10:28:24;;;;;;;11.57;9.68;;;12.50;72.10;;;;;;5018072;28;20209;-76
2022/03/02 10:31:13;;;;;;;12.13;9.65;;;12.30;70.20;;;;;;5010978;28;20659;-77
2022/03/02 10:33:52;;;;;;;15.45;10.90;;;12.40;70.70;;;;;;5010020;28;20761;-77
2022/03/02 10:36:21;;;;;;;10.65;9.55;;;12.30;70.40;;;;;;5010425;28;20261;-77
2022/03/02 10:39:04;;;;;;;18.92;11.30;;;11.80;70.60;;;;;;5009417;28;20221;-77
2022/03/02 10:41:37;;;;;;;12.98;10.02;;;11.70;71.70;;;;;;5009841;28;20255;-77
2022/03/02 10:44:06;;;;;;;13.90;11.75;;;11.50;72.30;;;;;;5009931;28;20234;-77
2022/03/02 10:46:37;;;;;;;14.57;11.25;;;11.60;72.80;;;;;;5010137;28;20257;-77
2022/03/02 10:49:06;;;;;;;13.52;10.45;;;11.20;73.20;;;;;;5194769;22;20326;-77
2022/03/02 10:51:35;;;;;;;12.10;10.30;;;10.80;73.80;;;;;;5091576;28;20198;-76
2022/03/02 10:54:04;;;;;;;12.32;10.63;;;10.50;74.80;;;;;;5089409;28;20247;-76
2022/03/02 10:56:38;;;;;;;19.38;10.50;;;10.10;76.00;;;;;;5090697;28;20578;-75
2022/03/02 10:59:08;;;;;;;11.27;10.05;;;9.70;76.70;;;;;;5090233;28;20294;-78
2022/03/02 11:01:37;;;;;;;15.30;9.70;;;9.50;77.00;;;;;;5093823;28;20491;-77
2022/03/02 11:04:07;;;;;;;14.40;10.35;;;9.20;78.10;;;;;;5092083;28;20222;-77
2022/03/02 11:06:37;;;;;;;16.67;11.10;;;9.20;79.40;;;;;;5093819;28;20297;-77
2022/03/02 11:09:05;;;;;;;17.60;11.55;;;9.00;77.70;;;;;;5093402;28;20253;-77
2022/03/02 11:11:35;;;;;;;13.93;10.70;;;8.90;78.10;;;;;;5087882;28;20211;-76
2022/03/02 11:14:03;;;;;;;14.00;10.50;;;8.70;76.90;;;;;;5090250;28;20597;-77
2022/03/02 11:16:29;;;;;;;11.80;10.07;;;8.70;77.80;;;;;;5089989;28;20211;-77
2022/03/02 11:19:10;;;;;;;21.67;10.90;;;8.60;78.80;;;;;;5089058;28;20199;-77
2022/03/02 11:21:40;;;;;;;13.05;10.65;;;8.70;79.20;;;;;;5090266;28;20206;-77
2022/03/02 11:24:09;;;;;;;12.15;9.25;;;9.00;77.40;;;;;;5089908;28;20590;-76
2022/03/02 11:26:38;;;;;;;12.70;9.80;;;9.10;76.40;;;;;;5089252;28;20688;-77
2022/03/02 11:29:11;;;;;;;15.23;10.50;;;9.30;77.30;;;;;;5090297;28;20204;-77
2022/03/02 11:31:41;;;;;;;13.32;10.63;;;9.70;76.40;;;;;;5090044;28;20196;-77
2022/03/02 11:34:12;;;;;;;16.50;9.73;;;10.20;74.00;;;;;;5089586;28;20609;-77
2022/03/02 11:36:40;;;;;;;14.85;9.93;;;10.60;72.40;;;;;;5090032;28;20626;-77
2022/03/02 11:39:09;;;;;;;12.00;10.45;;;10.80;72.30;;;;;;5089503;28;20701;-77
2022/03/02 11:41:38;;;;;;;13.15;10.43;;;11.20;72.90;;;;;;5089972;28;20200;-77
2022/03/02 11:44:24;;;;;;;11.90;9.45;;;11.30;69.50;;;;;;5089070;28;20224;-77
2022/03/02 11:46:51;;;;;;;12.75;9.25;;;11.10;69.90;;;;;;5089284;28;20300;-77
2022/03/02 11:49:19;;;;;;;16.73;10.65;;;10.90;70.20;;;;;;5090288;28;20240;-77
2022/03/02 11:51:46;;;;;;;12.85;9.50;;;10.80;71.50;;;;;;5089844;28;20212;-77
2022/03/02 11:54:13;;;;;;;12.68;9.88;;;10.80;71.70;;;;;;5089444;28;20227;-77
2022/03/02 11:56:39;;;;;;;13.20;9.60;;;10.70;71.20;;;;;;5088429;28;20210;-76
2022/03/02 11:59:07;;;;;;;11.60;9.00;;;10.70;70.50;;;;;;5089362;28;20201;-77
2022/03/02 12:01:43;;;;;;;10.50;9.40;;;10.50;71.40;;;;;;5088982;28;20641;-77
2022/03/02 12:04:14;;;;;;;11.50;8.23;;;10.80;70.10;;;;;;5082094;28;20790;-77
2022/03/02 12:06:44;;;;;;;10.73;8.15;;;11.50;67.10;;;;;;5081206;28;20315;-77
2022/03/02 12:09:24;;;;;;;10.27;9.10;;;12.70;66.40;;;;;;5086781;28;20228;-77
2022/03/02 12:11:50;;;;;;;11.07;9.05;;;13.30;65.60;;;;;;5089301;28;20468;-77
2022/03/02 12:14:17;;;;;;;9.53;8.10;;;13.30;63.00;;;;;;5088823;28;20227;-77
2022/03/02 12:16:47;;;;;;;8.97;8.10;;;13.20;63.60;;;;;;5088363;28;20816;-77
2022/03/02 12:19:23;;;;;;;12.97;8.40;;;13.20;63.70;;;;;;5089294;28;20461;-77
2022/03/02 12:21:54;;;;;;;11.07;9.20;;;12.80;64.80;;;;;;5091180;28;20470;-77
2022/03/02 12:24:28;;;;;;;12.97;8.67;;;12.60;65.00;;;;;;5090936;28;20477;-77
2022/03/02 12:27:01;;;;;;;11.20;8.53;;;12.50;64.60;;;;;;5089841;28;20482;-77
2022/03/02 12:29:30;;;;;;;14.07;9.23;;;12.40;65.80;;;;;;5090914;28;20824;-77
2022/03/02 12:32:06;;;;;;;12.40;9.17;;;12.90;65.00;;;;;;5090611;28;20584;-77
2022/03/02 12:34:36;;;;;;;10.90;8.77;;;14.10;63.20;;;;;;5090748;28;20481;-74
2022/03/02 12:37:04;;;;;;;12.33;11.03;;;15.20;61.20;;;;;;5101755;28;20444;-79
2022/03/02 12:39:32;;;;;;;12.57;10.40;;;15.00;60.30;;;;;;5098765;28;20467;-79
2022/03/02 12:42:02;;;;;;;12.23;9.90;;;14.30;61.90;;;;;;5097657;28;20461;-79
2022/03/02 12:44:33;;;;;;;12.87;10.23;;;14.00;62.10;;;;;;5100094;28;20551;-79
2022/03/02 12:47:03;;;;;;;11.43;9.50;;;13.80;63.30;;;;;;5094990;28;20487;-80
2022/03/02 12:49:31;;;;;;;10.53;9.27;;;13.40;63.80;;;;;;5093302;28;20778;-79